createdAt,value
2023-04-23T00:05:31.226Z,23.9
2023-04-23T00:11:22.856Z,23.9
2023-04-23T00:17:14.721Z,23.9
2023-04-23T00:23:05.915Z,23.8
2023-04-23T00:28:56.718Z,23.8
2023-04-23T00:34:48.649Z,23.8
2023-04-23T00:40:24.429Z,23.8
2023-04-23T00:46:15.801Z,23.8
2023-04-23T00:52:07.802Z,23.8
2023-04-23T00:57:59.207Z,23.8
2023-04-23T01:03:50.676Z,23.8
2023-04-23T01:09:42.605Z,23.8
2023-04-23T01:15:34.076Z,23.7
2023-04-23T01:21:09.819Z,23.8
2023-04-23T01:27:01.201Z,23.7
2023-04-23T01:32:53.139Z,23.7
2023-04-23T01:38:44.521Z,23.7
2023-04-23T01:44:36.104Z,23.8
2023-04-23T01:50:30.453Z,23.7
2023-04-23T01:56:21.147Z,23.7
2023-04-23T02:01:56.927Z,23.7
2023-04-23T02:07:50.185Z,23.7
2023-04-23T02:13:41.600Z,23.7
2023-04-23T02:19:34.021Z,23.7
2023-04-23T02:25:26.140Z,23.8
2023-04-23T02:31:17.373Z,23.7
2023-04-23T02:37:09.453Z,23.7
2023-04-23T02:43:00.615Z,23.7
2023-04-23T02:48:52.107Z,23.7
2023-04-23T02:54:43.526Z,23.7
2023-04-23T03:00:35.453Z,23.6
2023-04-23T03:06:28.655Z,23.7
2023-04-23T03:12:04.489Z,23.7
2023-04-23T03:17:56.461Z,23.7
2023-04-23T03:23:47.659Z,23.7
2023-04-23T03:29:40.789Z,23.6
2023-04-23T03:35:33.064Z,23.5
2023-04-23T03:41:24.032Z,23.4
2023-04-23T03:47:00.458Z,23.4
2023-04-23T03:52:36.917Z,23.4
2023-04-23T03:58:12.419Z,23.4
2023-04-23T04:04:05.161Z,23.4
2023-04-23T04:09:58.817Z,23.3
2023-04-23T04:15:50.430Z,23.3
2023-04-23T04:21:43.867Z,23.3
2023-04-23T04:27:34.779Z,23.3
2023-04-23T04:33:26.159Z,23.3
2023-04-23T04:39:17.852Z,23.2
2023-04-23T04:45:09.473Z,23.1
2023-04-23T04:51:01.372Z,23.1
2023-04-23T04:56:52.600Z,23
2023-04-23T05:02:29.110Z,22.9
2023-04-23T05:08:21.506Z,22.8
2023-04-23T05:14:15.094Z,22.8
2023-04-23T05:20:07.054Z,22.8
2023-04-23T05:25:58.746Z,22.7
2023-04-23T05:31:50.419Z,22.6
2023-04-23T05:37:48.453Z,22.6
2023-04-23T05:43:41.295Z,22.6
2023-04-23T05:49:33.950Z,22.6
2023-04-23T05:55:27.175Z,22.6
2023-04-23T06:01:18.601Z,22.5
2023-04-23T06:06:59.726Z,22.4
2023-04-23T06:12:53.090Z,22.4
2023-04-23T06:18:46.580Z,22.4
2023-04-23T06:24:37.914Z,22.4
2023-04-23T06:30:29.449Z,22.3
2023-04-23T06:36:31.933Z,22.3
2023-04-23T06:42:23.575Z,39.8
2023-04-23T06:48:15.555Z,42.3
2023-04-23T06:54:07.546Z,39.8
2023-04-23T07:00:00.581Z,38.5
2023-04-23T07:05:53.960Z,42.9
2023-04-23T07:11:44.776Z,38
2023-04-23T07:17:36.720Z,38.4
2023-04-23T07:23:27.902Z,39.3
2023-04-23T07:29:18.824Z,40.1
2023-04-23T07:35:11.097Z,41.1
2023-04-23T07:41:04.854Z,41.5
2023-04-23T07:46:56.324Z,42.3
2023-04-23T07:52:33.686Z,43.3
2023-04-23T07:58:27.685Z,44.1
2023-04-23T08:04:20.966Z,44.9
2023-04-23T08:10:13.898Z,46.1
2023-04-23T08:16:05.319Z,47.1
2023-04-23T08:22:12.512Z,48.3
2023-04-23T08:28:04.140Z,48.8
2023-04-23T08:33:57.043Z,47
2023-04-23T08:39:44.930Z,50.3
2023-04-23T08:45:21.432Z,51.9
2023-04-23T08:50:57.757Z,51.3
2023-04-23T08:56:34.044Z,52.6
2023-04-23T09:02:26.209Z,53.7
2023-04-23T09:08:04.495Z,54.8
2023-04-23T09:13:58.124Z,55.6
2023-04-23T09:19:49.017Z,54.3
2023-04-23T09:25:25.027Z,48.4
2023-04-23T09:31:00.964Z,56.5
2023-04-23T09:36:53.504Z,59.5
2023-04-23T09:42:29.935Z,58
2023-04-23T09:48:06.502Z,57.8
2023-04-23T09:53:58.790Z,58.6
2023-04-23T10:00:11.281Z,58.7
2023-04-23T10:06:57.673Z,58.3
2023-04-23T10:13:44.880Z,59.8
2023-04-23T10:19:41.739Z,60.4
2023-04-23T10:25:59.583Z,60.2
2023-04-23T10:32:07.871Z,60.6
2023-04-23T10:38:28.988Z,61.1
2023-04-23T10:44:06.204Z,61.5
2023-04-23T10:50:08.602Z,61.3
2023-04-23T10:57:00.664Z,61.6
2023-04-23T11:02:52.378Z,61.8
2023-04-23T11:08:54.735Z,61.9
2023-04-23T11:14:49.107Z,61.6
2023-04-23T11:20:27.514Z,61.5
2023-04-23T11:26:18.844Z,61.7
2023-04-23T11:32:19.692Z,61.6
2023-04-23T11:38:12.068Z,61.7
2023-04-23T11:43:48.477Z,61.8
2023-04-23T11:48:54.327Z,61.4
2023-04-23T11:54:47.181Z,61.4
2023-04-23T12:00:40.194Z,61.4
2023-04-23T12:06:33.116Z,61.6
2023-04-23T12:12:33.855Z,61.6
2023-04-23T12:18:12.191Z,61.5
2023-04-23T12:24:03.670Z,61.2
2023-04-23T12:29:55.900Z,59.1
2023-04-23T12:35:47.901Z,54.4
2023-04-23T12:41:39.417Z,49.1
2023-04-23T12:47:31.116Z,44.6
2023-04-23T12:53:22.843Z,41.6
2023-04-23T12:59:14.830Z,39.4
2023-04-23T13:05:09.611Z,37.9
2023-04-23T13:11:00.891Z,36.6
2023-04-23T13:16:37.911Z,35.6
2023-04-23T13:22:32.334Z,34.7
2023-04-23T13:28:24.218Z,33.9
2023-04-23T13:33:45.205Z,33.4
2023-04-23T13:39:37.530Z,32.8
2023-04-23T13:45:42.519Z,32.3
2023-04-23T13:51:50.366Z,31.8
2023-04-23T13:57:27.584Z,31.3
2023-04-23T14:03:32.875Z,30.9
2023-04-23T14:09:10.009Z,30.6
2023-04-23T14:14:46.947Z,30.3
2023-04-23T14:20:24.098Z,30
2023-04-23T14:26:18.689Z,29.8
2023-04-23T14:32:25.151Z,29.6
2023-04-23T14:38:31.714Z,29.4
2023-04-23T14:44:35.151Z,29.2
2023-04-23T14:50:11.762Z,29
2023-04-23T14:56:03.067Z,28.9
2023-04-23T15:01:56.794Z,28.8
2023-04-23T15:07:49.747Z,28.7
2023-04-23T15:13:41.502Z,28.6
2023-04-23T15:19:44.821Z,28.5
2023-04-23T15:25:36.815Z,28.4
2023-04-23T15:31:13.171Z,28.4
2023-04-23T15:37:06.578Z,28.3
2023-04-23T15:42:57.564Z,28.3
2023-04-23T15:48:49.429Z,28.2
2023-04-23T15:54:41.477Z,28.1
2023-04-23T16:00:33.786Z,28.1
2023-04-23T16:06:45.531Z,28.1
2023-04-23T16:12:37.879Z,28
2023-04-23T16:18:29.934Z,28
2023-04-23T16:24:22.739Z,27.9
2023-04-23T16:30:34.440Z,27.9
2023-04-23T16:36:27.143Z,27.7
2023-04-23T16:42:18.027Z,27.6
2023-04-23T16:48:10.813Z,27.6
2023-04-23T16:54:04.802Z,27.6
2023-04-23T16:59:57.738Z,27.6
2023-04-23T17:05:52.636Z,27.6
2023-04-23T17:11:45.958Z,27.6
2023-04-23T17:17:23.547Z,27.5
2023-04-23T17:23:00.577Z,27.5
2023-04-23T17:28:53.414Z,27.5
2023-04-23T17:34:49.441Z,27.4
2023-04-23T17:40:47.222Z,27.4
2023-04-23T17:46:40.632Z,27.3
2023-04-23T17:52:36.534Z,27.3
2023-04-23T17:58:17.115Z,27.3
2023-04-23T18:04:16.811Z,27.3
2023-04-23T18:09:55.941Z,27.3
2023-04-23T18:15:34.056Z,27.2
2023-04-23T18:21:14.356Z,27.2
2023-04-23T18:26:36.788Z,27.2
2023-04-23T18:32:21.187Z,27.1
2023-04-23T18:38:06.235Z,27.1
2023-04-23T18:44:37.492Z,27.1
2023-04-23T18:50:16.292Z,27.1
2023-04-23T18:55:57.491Z,27.1
2023-04-23T19:01:51.025Z,27.1
2023-04-23T19:08:11.586Z,27.1
2023-04-23T19:13:49.668Z,27.1
2023-04-23T19:19:27.305Z,27.2
2023-04-23T19:25:05.409Z,26.9
2023-04-23T19:30:59.115Z,26.7
2023-04-23T19:36:52.622Z,26.6
2023-04-23T19:42:15.214Z,26.6
2023-04-23T19:48:08.897Z,26.5
2023-04-23T19:53:31.288Z,26.5
2023-04-23T19:59:26.518Z,26.5
2023-04-23T20:05:05.706Z,26.4
2023-04-23T20:10:42.779Z,26.4
2023-04-23T20:16:22.508Z,26.4
2023-04-23T20:21:45.859Z,26.4
2023-04-23T20:27:23.223Z,26.3
2023-04-23T20:33:00.344Z,26.3
2023-04-23T20:38:37.373Z,26.3
2023-04-23T20:44:29.244Z,26.3
2023-04-23T20:50:05.387Z,26.3
2023-04-23T20:55:41.448Z,26.3
2023-04-23T21:01:32.984Z,26.2
2023-04-23T21:07:26.747Z,25.8
2023-04-23T21:13:18.379Z,25.2
2023-04-23T21:19:10.435Z,24.8
2023-04-23T21:25:01.609Z,24.5
2023-04-23T21:30:55.457Z,24.3
2023-04-23T21:36:31.993Z,24.1
2023-04-23T21:42:23.230Z,24
2023-04-23T21:48:15.477Z,23.8
2023-04-23T21:54:07.340Z,23.7
2023-04-23T22:00:15.201Z,23.6
2023-04-23T22:06:27.719Z,23.5
2023-04-23T22:12:33.642Z,23.4
2023-04-23T22:18:38.007Z,23.3
2023-04-23T22:24:29.302Z,23.3
2023-04-23T22:30:19.794Z,23.2
2023-04-23T22:35:56.634Z,23.1
2023-04-23T22:41:50.054Z,23.1
2023-04-23T22:47:25.896Z,23
2023-04-23T22:53:03.871Z,23
2023-04-23T22:58:24.607Z,22.9
2023-04-23T23:04:01.119Z,22.9
2023-04-23T23:09:21.909Z,22.9
2023-04-23T23:15:12.992Z,22.9
2023-04-23T23:20:49.435Z,22.8
2023-04-23T23:26:40.451Z,22.8
2023-04-23T23:32:31.976Z,22.8
2023-04-23T23:38:23.236Z,22.8
2023-04-23T23:44:16.941Z,22.8
2023-04-23T23:50:09.376Z,22.8
2023-04-23T23:55:45.501Z,22.8
